Time;durP1;ratioP1;P1;durP2;ratioP2;P2;SDS_P1;SDS_P2;PMS_P1;PMS_P2;Temp;Humidity;BMP_temperature;BMP_pressure;BME280_temperature;BME280_humidity;BME280_pressure;Samples;Min_cycle;Max_cycle;Signal;HPM_P1;HPM_P2
2021/08/29 00:00:47;;;;;;;16.45;5.43;;;;;;;10.61;93.26;100714.59;4965730;28;20035;-65
2021/08/29 00:03:13;;;;;;;9.07;4.78;;;;;;;10.62;93.39;100715.41;4968027;28;20134;-66
2021/08/29 00:05:39;;;;;;;11.57;5.05;;;;;;;10.52;93.44;100715.88;4960759;28;20133;-66
2021/08/29 00:08:05;;;;;;;10.68;4.35;;;;;;;10.42;94.34;100712.84;4967246;28;20372;-66
2021/08/29 00:10:32;;;;;;;13.50;5.32;;;;;;;10.40;95.37;100715.75;4963827;28;20057;-66
2021/08/29 00:12:58;;;;;;;14.73;5.75;;;;;;;10.49;95.50;100717.16;4971313;28;20558;-66
2021/08/29 00:15:24;;;;;;;8.32;4.72;;;;;;;10.44;94.40;100716.97;4960929;28;20392;-65
2021/08/29 00:17:49;;;;;;;11.40;4.93;;;;;;;10.39;95.24;100717.63;4969548;28;20033;-66
2021/08/29 00:20:15;;;;;;;9.15;5.20;;;;;;;10.30;94.94;100710.00;4962982;28;20654;-66
2021/08/29 00:22:40;;;;;;;13.68;5.30;;;;;;;10.23;95.72;100716.25;4963505;28;20491;-66
2021/08/29 00:25:07;;;;;;;10.77;5.65;;;;;;;10.24;96.38;100707.13;4959194;28;20035;-66
2021/08/29 00:27:33;;;;;;;11.50;5.28;;;;;;;10.33;95.68;100715.75;4962018;28;20045;-66
2021/08/29 00:29:58;;;;;;;8.73;4.97;;;;;;;10.26;95.35;100706.91;4961537;28;20042;-66
2021/08/29 00:32:24;;;;;;;8.82;5.15;;;;;;;10.25;94.73;100707.94;4959159;28;20047;-66
2021/08/29 00:34:49;;;;;;;9.85;5.00;;;;;;;10.37;95.82;100708.91;4968431;28;20511;-66
2021/08/29 00:37:15;;;;;;;10.32;5.85;;;;;;;10.44;96.06;100710.75;4956419;28;20661;-65
2021/08/29 00:39:41;;;;;;;12.93;6.40;;;;;;;10.60;95.45;100709.41;4964297;28;20109;-65
2021/08/29 00:42:07;;;;;;;20.27;8.25;;;;;;;10.49;95.20;100708.22;4956468;28;20031;-65
2021/08/29 00:44:33;;;;;;;15.40;6.80;;;;;;;10.52;95.38;100705.94;4964396;28;20484;-65
2021/08/29 00:46:58;;;;;;;19.45;6.10;;;;;;;10.70;96.28;100707.03;4962411;28;20082;-65
2021/08/29 00:49:24;;;;;;;11.38;6.30;;;;;;;10.73;95.45;100703.91;4961625;28;20800;-66
2021/08/29 00:51:52;;;;;;;9.95;5.60;;;;;;;10.76;96.05;100708.88;4965683;28;20045;-66
2021/08/29 00:54:18;;;;;;;13.15;5.63;;;;;;;11.08;96.94;100702.59;4964235;28;20117;-66
2021/08/29 00:56:43;;;;;;;12.68;6.50;;;;;;;11.11;95.94;100697.56;4958875;28;20078;-65
2021/08/29 00:59:10;;;;;;;15.93;7.18;;;;;;;11.43;94.96;100702.81;4962339;28;20027;-65
2021/08/29 01:01:38;;;;;;;10.18;6.07;;;;;;;11.57;95.39;100694.59;4963457;28;20031;-67
2021/08/29 01:04:07;;;;;;;12.85;6.40;;;;;;;11.53;94.90;100699.63;4964093;28;20032;-65
2021/08/29 01:07:04;;;;;;;10.32;5.70;;;;;;;11.56;94.18;100688.38;4955662;28;20408;-66
2021/08/29 01:09:30;;;;;;;10.02;5.47;;;;;;;11.47;94.53;100696.97;4965390;28;20046;-64
2021/08/29 01:11:56;;;;;;;9.93;5.45;;;;;;;11.37;94.25;100697.50;4961566;28;20365;-64
2021/08/29 01:14:24;;;;;;;15.48;5.57;;;;;;;11.32;94.17;100691.97;4961170;28;20031;-66
2021/08/29 01:16:55;;;;;;;12.20;5.53;;;;;;;11.09;94.21;100694.25;4958836;28;20488;-65
2021/08/29 01:19:33;;;;;;;9.50;5.50;;;;;;;11.02;94.25;100698.88;4958961;28;20051;-65
2021/08/29 01:22:00;;;;;;;10.88;5.40;;;;;;;10.86;94.76;100692.22;4962806;28;20034;-65
2021/08/29 01:24:26;;;;;;;15.77;6.47;;;;;;;10.86;96.31;100703.00;4964491;28;20038;-65
2021/08/29 01:27:08;;;;;;;13.80;6.40;;;;;;;10.86;96.98;100692.22;4964420;28;20059;-67
2021/08/29 01:29:34;;;;;;;15.57;7.50;;;;;;;10.89;97.95;100694.47;4962660;28;20082;-68
2021/08/29 01:32:03;;;;;;;8.35;5.60;;;;;;;10.88;97.36;100700.91;4963789;28;20035;-66
2021/08/29 01:34:30;;;;;;;13.32;7.15;;;;;;;11.04;97.65;100699.50;4959470;28;20066;-66
2021/08/29 01:36:57;;;;;;;18.27;8.55;;;;;;;11.43;97.26;100705.53;4955255;28;20126;-65
2021/08/29 01:39:23;;;;;;;14.80;8.00;;;;;;;11.57;96.13;100700.00;4952880;28;20051;-65
2021/08/29 01:41:50;;;;;;;15.85;7.68;;;;;;;11.55;95.73;100700.22;4963634;28;20102;-65
2021/08/29 01:44:21;;;;;;;18.70;10.27;;;;;;;11.45;95.73;100696.38;4933758;28;20143;-64
2021/08/29 01:46:47;;;;;;;20.92;9.15;;;;;;;11.51;96.30;100699.00;4953599;28;20059;-64
2021/08/29 01:49:13;;;;;;;17.08;8.02;;;;;;;11.52;96.16;100697.97;4960620;28;20034;-64
2021/08/29 01:51:41;;;;;;;13.73;7.88;;;;;;;11.61;96.03;100695.81;4961796;28;20043;-64
2021/08/29 01:54:07;;;;;;;27.00;9.20;;;;;;;11.93;96.03;100690.22;4972563;28;20039;-64
2021/08/29 01:56:57;;;;;;;20.13;8.65;;;;;;;12.09;94.97;100699.56;4964887;28;20038;-64
2021/08/29 01:59:22;;;;;;;14.02;8.85;;;;;;;12.18;94.75;100699.22;4970195;28;20086;-64
2021/08/29 02:01:48;;;;;;;21.58;9.02;;;;;;;12.33;93.81;100707.75;4946783;28;20031;-64
2021/08/29 02:04:14;;;;;;;13.27;8.57;;;;;;;12.38;93.37;100694.38;4954572;28;20570;-64
2021/08/29 02:06:47;;;;;;;19.30;8.65;;;;;;;12.37;93.49;100697.31;4962114;28;20436;-64
2021/08/29 02:09:14;;;;;;;;;;;;;;;12.44;93.32;100706.97;4955179;28;20039;-64
2021/08/29 02:11:42;;;;;;;15.73;8.38;;;;;;;12.41;93.23;100703.91;4958663;28;19929;-63
2021/08/29 02:14:20;;;;;;;22.45;9.05;;;;;;;12.44;93.18;100706.13;4966022;28;20039;-64
2021/08/29 02:16:46;;;;;;;23.50;9.13;;;;;;;12.37;93.39;100714.34;4966322;28;20125;-64
2021/08/29 02:19:22;;;;;;;15.90;9.23;;;;;;;12.30;93.53;100716.31;4961518;28;20408;-64
2021/08/29 02:21:49;;;;;;;26.52;9.63;;;;;;;12.21;93.84;100717.69;4949545;28;20492;-64
2021/08/29 02:24:15;;;;;;;19.42;9.38;;;;;;;12.15;94.30;100717.53;4964673;28;20473;-64
2021/08/29 02:26:41;;;;;;;28.02;10.65;;;;;;;12.17;94.47;100709.22;4964186;28;20035;-64
2021/08/29 02:29:09;;;;;;;23.48;9.95;;;;;;;12.29;94.02;100720.06;4954808;28;20093;-64
2021/08/29 02:31:35;;;;;;;19.23;9.10;;;;;;;12.27;93.91;100714.91;4961249;28;20116;-64
2021/08/29 02:34:01;;;;;;;26.05;9.90;;;;;;;12.25;93.79;100711.59;4956219;28;20035;-64
2021/08/29 02:36:28;;;;;;;23.73;10.18;;;;;;;12.24;93.78;100715.34;4958974;28;20070;-63
2021/08/29 02:38:54;;;;;;;17.85;9.98;;;;;;;12.28;94.11;100711.16;4952931;28;20102;-64
2021/08/29 02:41:22;;;;;;;19.83;10.52;;;;;;;12.40;93.33;100713.06;4960087;28;20026;-64
2021/08/29 02:43:49;;;;;;;25.38;10.60;;;;;;;12.40;93.11;100716.59;4948858;28;20117;-64
2021/08/29 02:46:15;;;;;;;24.58;10.23;;;;;;;12.39;93.17;100722.22;4969534;28;20484;-64
2021/08/29 02:48:44;;;;;;;23.65;11.13;;;;;;;12.35;93.67;100723.72;4955456;28;20070;-64
2021/08/29 02:51:12;;;;;;;26.33;11.18;;;;;;;12.34;93.91;100722.09;4972585;28;20097;-64
2021/08/29 02:53:41;;;;;;;38.05;11.13;;;;;;;12.28;94.26;100713.00;4962079;28;20117;-64
2021/08/29 02:56:07;;;;;;;24.90;10.27;;;;;;;12.26;94.36;100715.94;4966311;28;20117;-65
2021/08/29 02:58:34;;;;;;;24.55;10.52;;;;;;;12.20;94.35;100722.28;4951038;28;20603;-65
2021/08/29 03:01:00;;;;;;;25.77;10.43;;;;;;;12.15;94.72;100719.44;4965731;28;20041;-65
2021/08/29 03:03:26;;;;;;;26.55;11.57;;;;;;;12.06;95.29;100721.63;4960732;28;20035;-64
2021/08/29 03:05:52;;;;;;;40.83;11.93;;;;;;;12.02;95.45;100715.03;4959156;28;20058;-65
2021/08/29 03:08:18;;;;;;;27.40;11.88;;;;;;;11.97;95.71;100726.50;4957197;28;20037;-65
2021/08/29 03:10:43;;;;;;;26.73;12.48;;;;;;;11.94;96.18;100713.44;4964828;28;20042;-65
2021/08/29 03:13:09;;;;;;;21.17;11.23;;;;;;;12.00;96.01;100723.38;4969584;28;20117;-65
2021/08/29 03:15:35;;;;;;;26.80;12.07;;;;;;;11.96;96.52;100711.34;4955957;28;20118;-65
2021/08/29 03:18:01;;;;;;;26.60;11.98;;;;;;;12.09;96.04;100715.75;4960109;28;20063;-65
2021/08/29 03:20:29;;;;;;;26.58;11.65;;;;;;;12.11;95.94;100715.53;4958887;28;20034;-65
2021/08/29 03:22:55;;;;;;;31.65;12.95;;;;;;;12.14;95.77;100712.38;4952945;28;20396;-65
2021/08/29 03:25:21;;;;;;;28.77;12.52;;;;;;;12.25;94.69;100719.72;4966183;28;20034;-65
2021/08/29 03:27:47;;;;;;;32.17;14.50;;;;;;;12.23;95.21;100716.41;4964228;28;20054;-65
2021/08/29 03:30:14;;;;;;;35.05;14.75;;;;;;;12.17;95.17;100711.09;4972105;28;20568;-65
2021/08/29 03:32:40;;;;;;;31.60;17.30;;;;;;;12.25;95.10;100719.72;4976184;28;20064;-65
2021/08/29 03:35:07;;;;;;;35.90;18.08;;;;;;;12.17;95.34;100720.03;4967392;28;20117;-65
2021/08/29 03:37:33;;;;;;;41.72;20.02;;;;;;;12.14;95.36;100717.78;4968606;28;20032;-65
2021/08/29 03:40:01;;;;;;;50.03;19.38;;;;;;;12.00;95.80;100712.56;4972308;28;20041;-65
2021/08/29 03:42:30;;;;;;;44.22;20.52;;;;;;;11.93;95.85;100713.66;4971524;28;20035;-65
2021/08/29 03:44:56;;;;;;;38.78;19.52;;;;;;;11.91;96.11;100719.31;4957371;28;20034;-65
2021/08/29 03:47:23;;;;;;;44.00;18.40;;;;;;;11.90;96.22;100712.25;4962249;28;20118;-65
2021/08/29 03:49:48;;;;;;;39.88;18.13;;;;;;;11.91;96.08;100713.91;4957170;28;20129;-65
2021/08/29 03:52:18;;;;;;;41.83;17.60;;;;;;;11.80;96.11;100718.19;4961184;28;20483;-65
2021/08/29 03:54:47;;;;;;;36.30;16.15;;;;;;;11.71;95.70;100717.69;4950501;28;20047;-65
2021/08/29 03:57:13;;;;;;;34.47;15.70;;;;;;;11.68;95.74;100714.59;4957240;28;20050;-66
2021/08/29 03:59:40;;;;;;;39.08;14.80;;;;;;;11.63;95.71;100715.28;4974658;28;20122;-65
2021/08/29 04:02:06;;;;;;;39.30;14.65;;;;;;;11.57;95.93;100725.09;4955298;28;20046;-65
2021/08/29 04:04:33;;;;;;;38.97;14.82;;;;;;;11.53;95.81;100712.28;4965021;28;20384;-65
2021/08/29 04:07:04;;;;;;;39.05;15.60;;;;;;;11.51;96.24;100714.41;4967462;28;20396;-65
2021/08/29 04:09:32;;;;;;;34.67;14.30;;;;;;;11.56;95.93;100718.06;4966792;28;20035;-65
2021/08/29 04:11:59;;;;;;;27.83;12.90;;;;;;;11.61;96.00;100711.16;4959669;28;20050;-65
2021/08/29 04:14:26;;;;;;;35.33;13.40;;;;;;;11.70;95.57;100707.94;4956634;28;20031;-65
2021/08/29 04:16:55;;;;;;;41.83;13.60;;;;;;;11.73;94.91;100720.13;4950206;28;20795;-65
2021/08/29 04:19:21;;;;;;;34.70;16.92;;;;;;;11.70;95.23;100705.25;4963760;28;20088;-65
2021/08/29 04:21:47;;;;;;;33.22;17.10;;;;;;;11.77;95.38;100715.94;4957053;28;20130;-65
2021/08/29 04:24:13;;;;;;;32.08;17.83;;;;;;;11.68;95.58;100720.84;4954896;28;20130;-66
2021/08/29 04:26:38;;;;;;;37.08;16.02;;;;;;;11.59;95.70;100722.19;4961211;28;20186;-65
2021/08/29 04:29:05;;;;;;;35.65;14.57;;;;;;;11.53;95.75;100718.50;4956000;28;20031;-65
2021/08/29 04:31:32;;;;;;;28.42;14.23;;;;;;;11.46;95.95;100715.06;4970120;28;20046;-65
2021/08/29 04:34:08;;;;;;;38.45;14.13;;;;;;;11.36;96.00;100717.44;4953946;28;20156;-65
2021/08/29 04:36:35;;;;;;;36.67;13.65;;;;;;;11.34;96.15;100719.53;4964321;28;20577;-65
2021/08/29 04:39:05;;;;;;;37.65;13.90;;;;;;;11.27;96.56;100720.44;4956451;28;20071;-65
2021/08/29 04:41:31;;;;;;;33.42;14.15;;;;;;;11.37;95.91;100721.78;4959788;28;20031;-65
2021/08/29 04:43:57;;;;;;;31.85;12.38;;;;;;;11.41;95.68;100717.59;4964746;28;20623;-65
2021/08/29 04:46:23;;;;;;;35.40;13.25;;;;;;;11.44;95.70;100725.25;4944453;28;20070;-66
2021/08/29 04:48:48;;;;;;;31.48;13.90;;;;;;;11.45;95.87;100721.50;4961838;28;20498;-66
2021/08/29 04:51:14;;;;;;;33.58;13.73;;;;;;;11.45;96.18;100726.06;4953949;28;20090;-65
2021/08/29 04:53:39;;;;;;;39.25;14.95;;;;;;;11.44;96.07;100725.25;4970373;28;20050;-65
2021/08/29 04:56:05;;;;;;;29.65;14.85;;;;;;;11.46;96.10;100725.00;4958962;28;20035;-65
2021/08/29 04:58:31;;;;;;;35.50;13.82;;;;;;;11.45;95.84;100724.19;4973772;28;20039;-65
2021/08/29 05:00:56;;;;;;;38.83;14.95;;;;;;;11.44;95.85;100725.25;4960864;28;20054;-65
2021/08/29 05:03:21;;;;;;;27.80;15.15;;;;;;;11.46;95.60;100727.69;4968446;28;20046;-65
2021/08/29 05:05:47;;;;;;;29.00;14.05;;;;;;;11.45;95.79;100731.44;4965689;28;20073;-65
2021/08/29 05:08:13;;;;;;;35.22;15.23;;;;;;;11.39;96.25;100727.78;4956513;28;20043;-65
2021/08/29 05:10:38;;;;;;;29.90;14.77;;;;;;;11.40;96.15;100730.25;4962944;28;20038;-65
2021/08/29 05:13:04;;;;;;;33.33;15.27;;;;;;;11.39;96.18;100739.38;4957888;28;20126;-65
2021/08/29 05:15:30;;;;;;;31.08;15.75;;;;;;;11.46;96.00;100733.94;4956573;28;20069;-65
2021/08/29 05:17:56;;;;;;;38.17;15.52;;;;;;;11.51;95.71;100735.97;4954000;28;20094;-65
2021/08/29 05:20:22;;;;;;;36.55;16.75;;;;;;;11.50;95.68;100737.84;4965950;28;20031;-65
2021/08/29 05:22:48;;;;;;;41.15;17.17;;;;;;;11.51;95.86;100742.19;4958647;28;20547;-65
2021/08/29 05:25:13;;;;;;;42.90;18.13;;;;;;;11.52;96.05;100740.31;4964206;28;20046;-65
2021/08/29 05:27:39;;;;;;;39.50;18.25;;;;;;;11.50;96.11;100743.22;4957198;28;20097;-66
2021/08/29 05:30:05;;;;;;;38.55;19.27;;;;;;;11.52;96.26;100745.72;4962057;28;20070;-65
2021/08/29 05:32:31;;;;;;;47.10;20.40;;;;;;;11.57;96.09;100754.78;4956382;28;20548;-65
2021/08/29 05:34:56;;;;;;;46.10;18.98;;;;;;;11.58;95.87;100747.53;4952543;28;20119;-66
2021/08/29 05:37:22;;;;;;;49.10;19.95;;;;;;;11.60;95.98;100753.50;4960648;28;20468;-66
2021/08/29 05:39:47;;;;;;;44.95;19.25;;;;;;;11.61;95.79;100746.22;4957347;28;20700;-66
2021/08/29 05:42:13;;;;;;;44.72;21.20;;;;;;;11.61;96.14;100746.22;4954572;28;20437;-66
2021/08/29 05:44:39;;;;;;;44.63;19.48;;;;;;;11.65;96.18;100748.28;4953882;28;20107;-65
2021/08/29 05:47:04;;;;;;;49.13;20.92;;;;;;;11.71;95.84;100749.22;4971075;28;21142;-65
2021/08/29 05:49:30;;;;;;;39.10;20.23;;;;;;;11.66;95.71;100749.91;4953496;28;20492;-65
2021/08/29 05:51:55;;;;;;;47.97;20.27;;;;;;;11.73;95.57;100755.22;4967696;28;20479;-65
2021/08/29 05:54:21;;;;;;;51.15;19.60;;;;;;;11.75;95.46;100753.13;4964044;28;20412;-65
2021/08/29 05:56:46;;;;;;;46.20;19.73;;;;;;;11.79;95.25;100748.13;4954098;28;20042;-65
2021/08/29 05:59:12;;;;;;;44.35;18.27;;;;;;;11.78;95.03;100749.16;4966974;28;20097;-65
2021/08/29 06:01:37;;;;;;;34.30;17.48;;;;;;;11.81;95.09;100749.53;4954044;28;20042;-65
2021/08/29 06:04:03;;;;;;;45.80;17.00;;;;;;;11.78;94.93;100754.56;4955382;28;20031;-65
2021/08/29 06:06:33;;;;;;;35.88;17.55;;;;;;;11.78;95.31;100744.56;4963997;28;20054;-65
2021/08/29 06:08:59;;;;;;;39.40;18.33;;;;;;;11.86;94.56;100741.56;4970702;28;20039;-65
2021/08/29 06:11:24;;;;;;;41.35;17.23;;;;;;;11.93;94.59;100743.34;4956314;28;20631;-65
2021/08/29 06:13:49;;;;;;;37.83;16.20;;;;;;;11.89;94.30;100736.75;4966678;28;20039;-65
2021/08/29 06:16:15;;;;;;;34.88;15.30;;;;;;;11.98;94.00;100740.81;4953788;28;20090;-65
2021/08/29 06:18:40;;;;;;;34.38;15.38;;;;;;;11.92;94.09;100741.72;4953282;28;20059;-65
2021/08/29 06:21:06;;;;;;;30.90;14.93;;;;;;;11.98;93.94;100744.34;4958161;28;20059;-66
2021/08/29 06:23:31;;;;;;;29.73;13.45;;;;;;;12.09;93.33;100752.75;4952761;28;20122;-66
2021/08/29 06:25:57;;;;;;;28.08;13.88;;;;;;;12.09;93.14;100744.66;4955335;28;20492;-65
2021/08/29 06:28:23;;;;;;;25.25;12.18;;;;;;;12.11;92.49;100753.34;4959599;28;20039;-65
2021/08/29 06:30:49;;;;;;;26.70;12.45;;;;;;;12.06;92.32;100758.59;4956471;28;20039;-65
2021/08/29 06:33:15;;;;;;;27.67;11.50;;;;;;;12.13;92.03;100751.25;4955308;28;20041;-65
2021/08/29 06:35:40;;;;;;;28.65;11.73;;;;;;;12.15;91.63;100754.53;4953924;28;20043;-65
2021/08/29 06:38:05;;;;;;;25.15;10.85;;;;;;;12.12;91.85;100752.31;4954931;28;20130;-65
2021/08/29 06:40:31;;;;;;;23.23;10.75;;;;;;;12.07;92.06;100760.25;4958959;28;20046;-65
2021/08/29 06:42:56;;;;;;;24.98;10.75;;;;;;;12.11;91.37;100758.75;4952917;28;20123;-65
2021/08/29 06:45:22;;;;;;;24.05;10.07;;;;;;;12.07;91.18;100754.84;4952002;28;20042;-65
2021/08/29 06:47:47;;;;;;;23.33;9.70;;;;;;;12.17;91.00;100749.75;4964326;28;20035;-65
2021/08/29 06:50:13;;;;;;;27.40;10.68;;;;;;;12.25;90.38;100762.09;4962601;28;20046;-65
2021/08/29 06:52:39;;;;;;;20.27;9.40;;;;;;;12.28;90.30;100761.63;4962064;28;20078;-65
2021/08/29 06:55:05;;;;;;;32.55;9.70;;;;;;;12.32;89.86;100759.31;4953221;28;20560;-65
2021/08/29 06:57:30;;;;;;;21.50;9.45;;;;;;;12.31;89.99;100761.16;4960600;28;20043;-65
2021/08/29 06:59:56;;;;;;;19.80;8.63;;;;;;;12.40;89.08;100757.13;4950794;28;20046;-66
2021/08/29 07:02:22;;;;;;;30.52;9.27;;;;;;;12.47;88.97;100753.50;4950393;28;20547;-65
2021/08/29 07:04:48;;;;;;;22.85;8.90;;;;;;;12.56;88.92;100755.63;4954028;28;20047;-65
2021/08/29 07:07:14;;;;;;;21.33;8.65;;;;;;;12.75;88.58;100755.56;4956479;28;20047;-65
2021/08/29 07:09:40;;;;;;;16.73;8.70;;;;;;;12.86;87.01;100754.75;4952631;28;20484;-66
2021/08/29 07:12:10;;;;;;;19.33;9.18;;;;;;;12.89;86.49;100756.19;4977036;28;20126;-65
2021/08/29 07:14:36;;;;;;;19.35;9.07;;;;;;;12.90;86.38;100749.72;4961976;28;20035;-65
2021/08/29 07:17:02;;;;;;;17.05;8.35;;;;;;;12.77;86.94;100755.34;4966135;28;20043;-66
2021/08/29 07:19:30;;;;;;;18.45;9.40;;;;;;;12.79;87.08;100754.03;4951322;28;20114;-66
2021/08/29 07:21:55;;;;;;;18.98;8.75;;;;;;;12.66;87.78;100760.47;4951273;28;20118;-66
2021/08/29 07:24:21;;;;;;;21.15;8.80;;;;;;;12.80;87.06;100750.28;4953463;28;20032;-69
2021/08/29 07:26:47;;;;;;;22.80;8.70;;;;;;;12.84;87.11;100748.75;4953578;28;20023;-69
2021/08/29 07:29:13;;;;;;;17.02;8.48;;;;;;;12.80;87.15;100754.88;4938056;28;20028;-69
2021/08/29 07:31:38;;;;;;;20.55;8.70;;;;;;;12.85;87.40;100745.00;4960877;28;20059;-68
2021/08/29 07:34:04;;;;;;;20.50;8.10;;;;;;;12.98;86.67;100749.38;4954353;28;20431;-69
2021/08/29 07:36:29;;;;;;;20.75;8.73;;;;;;;13.00;85.91;100754.53;4956210;28;20493;-68
2021/08/29 07:38:55;;;;;;;20.80;8.70;;;;;;;13.06;86.08;100750.88;4952126;28;20049;-68
2021/08/29 07:41:20;;;;;;;16.60;7.57;;;;;;;13.15;85.21;100760.28;4952666;28;20175;-68
2021/08/29 07:43:46;;;;;;;17.38;8.20;;;;;;;13.18;84.76;100761.72;4946815;28;20489;-68
2021/08/29 07:46:11;;;;;;;25.25;7.50;;;;;;;13.14;85.11;100758.66;4950900;28;20742;-68
2021/08/29 07:48:37;;;;;;;14.48;7.45;;;;;;;13.12;84.25;100752.66;4951230;28;20054;-68
2021/08/29 07:51:03;;;;;;;20.10;7.30;;;;;;;13.19;84.25;100760.66;4967760;28;20073;-68
2021/08/29 07:53:30;;;;;;;13.20;7.00;;;;;;;13.29;83.98;100755.47;4950844;28;20043;-68
2021/08/29 07:55:55;;;;;;;16.48;6.93;;;;;;;13.48;83.14;100747.25;4949982;28;20039;-68
2021/08/29 07:58:21;;;;;;;14.43;6.93;;;;;;;13.63;81.99;100751.38;4950338;28;20495;-69
2021/08/29 08:00:47;;;;;;;12.52;5.70;;;;;;;13.60;81.24;100741.84;4936870;28;21211;-68
2021/08/29 08:03:13;;;;;;;18.50;5.75;;;;;;;13.55;80.11;100758.78;4952043;28;20126;-69
2021/08/29 08:05:40;;;;;;;15.98;5.60;;;;;;;13.49;80.11;100745.41;4948973;28;20039;-69
2021/08/29 08:08:06;;;;;;;17.27;5.35;;;;;;;13.52;79.33;100744.91;4959579;28;20085;-69
2021/08/29 08:10:32;;;;;;;14.80;5.03;;;;;;;13.39;80.04;100752.19;4612478;28;10000557;-69
2021/08/29 08:12:58;;;;;;;14.77;5.68;;;;;;;13.49;80.60;100745.41;4955296;28;20505;-69
2021/08/29 08:15:23;;;;;;;12.35;5.93;;;;;;;13.54;80.55;100745.50;4951434;28;20682;-70
2021/08/29 08:17:49;;;;;;;17.08;6.05;;;;;;;13.44;80.40;100755.06;4951506;28;20031;-69
2021/08/29 08:20:15;;;;;;;9.88;5.53;;;;;;;13.27;80.95;100748.69;4952752;28;20043;-69
2021/08/29 08:22:42;;;;;;;17.27;5.30;;;;;;;13.28;81.49;100758.44;4954223;28;20114;-69
2021/08/29 08:25:08;;;;;;;11.38;5.10;;;;;;;13.26;81.17;100757.84;4951156;28;20046;-69
2021/08/29 08:27:34;;;;;;;14.98;5.10;;;;;;;13.33;80.62;100763.97;4962542;28;20353;-69
2021/08/29 08:29:59;;;;;;;14.73;4.93;;;;;;;13.44;79.97;100763.16;4953998;28;20524;-69
2021/08/29 08:32:25;;;;;;;18.25;5.60;;;;;;;13.60;78.94;100771.63;4949712;28;20491;-69
2021/08/29 08:34:50;;;;;;;11.90;5.00;;;;;;;13.48;78.12;100771.63;4953373;28;20148;-68
2021/08/29 08:37:16;;;;;;;17.48;4.85;;;;;;;13.55;77.81;100761.50;4955815;28;20065;-70
2021/08/29 08:39:42;;;;;;;10.85;4.35;;;;;;;13.74;76.38;100758.63;4962940;28;20035;-69
2021/08/29 08:42:07;;;;;;;16.15;5.50;;;;;;;13.94;75.66;100770.94;4950066;28;20057;-73
2021/08/29 08:44:34;;;;;;;13.55;4.50;;;;;;;13.80;74.78;100767.72;4960557;28;20050;-70
2021/08/29 08:47:04;;;;;;;14.32;4.93;;;;;;;13.54;74.18;100772.56;4962698;28;20071;-70
2021/08/29 08:49:32;;;;;;;14.05;4.00;;;;;;;13.41;74.88;100766.31;4948839;28;20619;-70
2021/08/29 08:52:02;;;;;;;12.00;4.22;;;;;;;13.44;75.29;100774.00;4951672;28;20043;-70
2021/08/29 08:54:29;;;;;;;10.90;4.32;;;;;;;13.78;74.03;100775.25;4949814;28;20045;-70
2021/08/29 08:56:56;;;;;;;14.93;3.78;;;;;;;13.83;74.33;100767.22;4962060;28;20035;-70
2021/08/29 08:59:22;;;;;;;8.98;4.55;;;;;;;13.91;73.12;100780.41;4953768;28;20637;-70
2021/08/29 09:01:48;;;;;;;11.20;4.25;;;;;;;14.03;72.81;100772.22;4949195;28;20067;-70
2021/08/29 09:04:14;;;;;;;12.57;4.25;;;;;;;13.94;73.22;100782.63;4959406;28;20063;-69
2021/08/29 09:06:40;;;;;;;10.20;4.28;;;;;;;13.89;72.17;100775.19;4948553;28;20153;-70
2021/08/29 09:09:06;;;;;;;8.45;3.90;;;;;;;13.85;72.45;100790.28;4959812;28;20042;-70
2021/08/29 09:11:33;;;;;;;16.02;4.38;;;;;;;13.94;70.86;100785.34;4953500;28;20082;-69
2021/08/29 09:14:00;;;;;;;8.63;4.25;;;;;;;13.96;70.51;100791.34;4959232;28;20114;-69
2021/08/29 09:16:27;;;;;;;14.20;3.92;;;;;;;14.11;69.69;100790.00;4957047;28;20036;-70
2021/08/29 09:18:58;;;;;;;10.30;3.53;;;;;;;14.01;69.23;100793.31;4961379;28;20038;-71
2021/08/29 09:21:29;;;;;;;11.68;3.63;;;;;;;14.03;69.50;100792.00;4953342;28;20097;-70
2021/08/29 09:23:57;;;;;;;9.70;3.22;;;;;;;13.62;69.20;100791.16;4960279;28;20377;-70
2021/08/29 09:26:24;;;;;;;7.65;3.25;;;;;;;13.54;68.72;100796.94;4954068;28;20057;-70
2021/08/29 09:28:55;;;;;;;8.13;3.20;;;;;;;13.45;69.95;100797.28;4949011;28;20126;-70
2021/08/29 09:31:20;;;;;;;10.45;3.78;;;;;;;13.67;70.53;100795.84;4958875;28;20288;-71
2021/08/29 09:33:59;;;;;;;9.68;3.83;;;;;;;13.78;69.83;100799.59;4953681;28;20041;-59
2021/08/29 09:36:33;;;;;;;11.15;3.45;;;;;;;13.56;69.93;100806.44;4956978;28;20038;-70
2021/08/29 09:39:14;;;;;;;12.23;3.67;;;;;;;13.78;69.55;100797.72;4949188;28;20511;-70
2021/08/29 09:41:41;;;;;;;6.75;3.30;;;;;;;13.93;69.24;100796.38;4952184;28;20035;-70
2021/08/29 09:44:22;;;;;;;7.97;3.13;;;;;;;13.86;69.64;100808.19;4960305;28;20031;-71
2021/08/29 09:46:59;;;;;;;7.82;3.25;;;;;;;13.51;70.79;100794.69;4957696;28;20039;-70
2021/08/29 09:49:36;;;;;;;10.50;3.80;;;;;;;13.55;71.07;100807.50;4959402;28;20365;-73
2021/08/29 09:52:05;;;;;;;10.88;3.60;;;;;;;13.43;72.27;100803.97;4954054;28;20546;-72
2021/08/29 09:54:44;;;;;;;7.10;2.92;;;;;;;13.40;71.83;100807.13;4952999;28;20052;-71
2021/08/29 09:57:11;;;;;;;9.50;3.67;;;;;;;13.45;71.76;100815.41;4958909;28;20616;-71
2021/08/29 09:59:48;;;;;;;10.10;3.10;;;;;;;13.37;71.56;100811.13;4957658;28;20064;-71
2021/08/29 10:02:18;;;;;;;14.82;3.38;;;;;;;13.39;71.40;100813.59;4948530;28;20039;-71
2021/08/29 10:04:44;;;;;;;8.95;3.10;;;;;;;13.21;71.57;100809.94;4963017;28;20125;-71
2021/08/29 10:07:18;;;;;;;14.63;3.22;;;;;;;13.27;71.97;100808.19;4967834;28;20046;-71
2021/08/29 10:09:46;;;;;;;7.47;2.78;;;;;;;13.27;70.95;100819.03;4961275;28;20042;-71
2021/08/29 10:12:12;;;;;;;7.57;2.53;;;;;;;13.13;71.42;100813.81;4948812;28;20057;-71
2021/08/29 10:14:40;;;;;;;9.25;3.13;;;;;;;13.41;71.32;100815.03;4949275;28;20134;-71
2021/08/29 10:17:07;;;;;;;7.28;2.80;;;;;;;13.43;70.96;100809.41;4951770;28;20046;-72
2021/08/29 10:19:35;;;;;;;8.35;3.40;;;;;;;13.72;70.36;100813.03;4962382;28;20031;-71
2021/08/29 10:22:02;;;;;;;11.65;3.42;;;;;;;13.88;69.97;100810.66;4937197;28;20074;-71
2021/08/29 10:24:33;;;;;;;8.02;2.85;;;;;;;13.91;70.02;100805.56;4959421;28;20505;-71
2021/08/29 10:27:03;;;;;;;12.80;2.97;;;;;;;14.28;68.18;100809.03;4958644;28;20130;-71
2021/08/29 10:29:34;;;;;;;6.82;2.92;;;;;;;14.07;68.81;100803.19;4947819;28;20035;-71
2021/08/29 10:32:25;;;;;;;11.90;3.40;;;;;;;14.10;69.25;100804.59;4953166;28;20142;-71
2021/08/29 10:34:51;;;;;;;8.20;2.83;;;;;;;14.17;68.23;100800.69;4943970;28;20059;-71
2021/08/29 10:37:17;;;;;;;8.02;3.38;;;;;;;14.13;68.68;100804.13;4953956;28;20074;-71
2021/08/29 10:39:43;;;;;;;5.75;3.13;;;;;;;14.14;68.41;100800.34;4952316;28;20042;-71
2021/08/29 10:42:11;;;;;;;12.70;2.85;;;;;;;14.02;67.96;100811.19;4975177;28;20053;-71
2021/08/29 10:44:37;;;;;;;5.00;2.33;;;;;;;14.19;67.00;100800.44;4953049;28;20114;-71
2021/08/29 10:47:03;;;;;;;8.95;3.15;;;;;;;14.22;67.96;100808.09;4951052;28;20035;-71
2021/08/29 10:49:29;;;;;;;12.05;3.20;;;;;;;14.04;68.84;100814.50;4954859;28;20042;-71
2021/08/29 10:51:57;;;;;;;13.18;3.33;;;;;;;14.11;69.06;100817.88;4960637;28;20034;-71
2021/08/29 10:54:23;;;;;;;7.57;3.13;;;;;;;14.04;69.33;100814.50;4955346;28;20042;-71
2021/08/29 10:56:48;;;;;;;13.13;3.53;;;;;;;13.87;70.56;100804.41;4961313;28;20042;-70
2021/08/29 10:59:17;;;;;;;17.92;3.35;;;;;;;13.81;70.81;100813.47;4946251;28;20125;-71
2021/08/29 11:01:45;;;;;;;8.75;3.10;;;;;;;13.79;71.28;100810.19;4962781;28;20035;-71
2021/08/29 11:04:26;;;;;;;8.52;3.13;;;;;;;13.94;70.54;100814.28;4957477;28;20038;-71
2021/08/29 11:06:55;;;;;;;8.35;3.10;;;;;;;13.93;70.41;100812.63;4951912;28;20135;-71
2021/08/29 11:09:37;;;;;;;7.10;3.17;;;;;;;14.02;69.52;100811.19;4949771;28;20047;-71
2021/08/29 11:12:06;;;;;;;9.20;3.28;;;;;;;13.84;70.22;100812.19;4953235;28;20163;-73
2021/08/29 11:14:49;;;;;;;12.57;3.47;;;;;;;13.93;70.48;100815.34;4951300;28;20039;-72